sensor_id;sensor_type;location;lat;lon;timestamp;P1;durP1;ratioP1;P2;durP2;ratioP2
21905;SDS011;11117;48.644;9.006;2022-08-06T00:00:24;2.80;;;1.98;;
21905;SDS011;11117;48.644;9.006;2022-08-06T00:02:49;4.03;;;1.90;;
21905;SDS011;11117;48.644;9.006;2022-08-06T00:05:15;4.93;;;2.00;;
21905;SDS011;11117;48.644;9.006;2022-08-06T00:07:41;3.60;;;1.60;;
21905;SDS011;11117;48.644;9.006;2022-08-06T00:10:07;6.85;;;1.90;;
21905;SDS011;11117;48.644;9.006;2022-08-06T00:12:34;4.47;;;1.95;;
21905;SDS011;11117;48.644;9.006;2022-08-06T00:15:04;4.90;;;1.88;;
21905;SDS011;11117;48.644;9.006;2022-08-06T00:17:30;5.70;;;1.83;;
21905;SDS011;11117;48.644;9.006;2022-08-06T00:19:56;2.92;;;1.90;;
21905;SDS011;11117;48.644;9.006;2022-08-06T00:22:22;2.55;;;1.60;;
21905;SDS011;11117;48.644;9.006;2022-08-06T00:24:48;3.65;;;2.00;;
21905;SDS011;11117;48.644;9.006;2022-08-06T00:27:14;3.10;;;1.85;;
21905;SDS011;11117;48.644;9.006;2022-08-06T00:29:39;4.35;;;1.98;;
21905;SDS011;11117;48.644;9.006;2022-08-06T00:32:05;6.53;;;1.85;;
21905;SDS011;11117;48.644;9.006;2022-08-06T00:34:31;3.20;;;1.75;;
21905;SDS011;11117;48.644;9.006;2022-08-06T00:36:56;4.65;;;1.98;;
21905;SDS011;11117;48.644;9.006;2022-08-06T00:39:26;2.65;;;1.85;;
21905;SDS011;11117;48.644;9.006;2022-08-06T00:44:48;3.58;;;1.80;;
21905;SDS011;11117;48.644;9.006;2022-08-06T00:47:14;6.43;;;1.67;;
21905;SDS011;11117;48.644;9.006;2022-08-06T00:49:40;3.55;;;1.67;;
21905;SDS011;11117;48.644;9.006;2022-08-06T00:52:05;3.05;;;1.90;;
21905;SDS011;11117;48.644;9.006;2022-08-06T00:54:31;5.22;;;1.88;;
21905;SDS011;11117;48.644;9.006;2022-08-06T00:56:57;2.83;;;1.70;;
21905;SDS011;11117;48.644;9.006;2022-08-06T00:59:26;2.60;;;1.70;;
21905;SDS011;11117;48.644;9.006;2022-08-06T01:01:51;4.05;;;1.73;;
21905;SDS011;11117;48.644;9.006;2022-08-06T01:04:20;2.90;;;1.40;;
21905;SDS011;11117;48.644;9.006;2022-08-06T01:06:52;2.75;;;1.70;;
21905;SDS011;11117;48.644;9.006;2022-08-06T01:09:27;2.35;;;1.48;;
21905;SDS011;11117;48.644;9.006;2022-08-06T01:11:56;3.25;;;1.65;;
21905;SDS011;11117;48.644;9.006;2022-08-06T01:14:40;4.28;;;1.77;;
21905;SDS011;11117;48.644;9.006;2022-08-06T01:28:34;3.63;;;1.85;;
21905;SDS011;11117;48.644;9.006;2022-08-06T01:31:10;4.07;;;2.03;;
21905;SDS011;11117;48.644;9.006;2022-08-06T01:34:01;5.78;;;1.77;;
21905;SDS011;11117;48.644;9.006;2022-08-06T01:39:33;7.85;;;1.70;;
21905;SDS011;11117;48.644;9.006;2022-08-06T01:42:01;3.67;;;2.03;;
21905;SDS011;11117;48.644;9.006;2022-08-06T01:44:31;4.68;;;1.83;;
21905;SDS011;11117;48.644;9.006;2022-08-06T01:47:07;4.13;;;1.98;;
21905;SDS011;11117;48.644;9.006;2022-08-06T01:49:46;4.35;;;1.80;;
21905;SDS011;11117;48.644;9.006;2022-08-06T01:52:38;2.17;;;1.67;;
21905;SDS011;11117;48.644;9.006;2022-08-06T01:58:21;5.13;;;1.63;;
21905;SDS011;11117;48.644;9.006;2022-08-06T02:01:02;3.22;;;1.55;;
21905;SDS011;11117;48.644;9.006;2022-08-06T02:06:07;6.55;;;1.70;;
21905;SDS011;11117;48.644;9.006;2022-08-06T02:08:39;3.20;;;1.55;;
21905;SDS011;11117;48.644;9.006;2022-08-06T02:11:17;4.97;;;1.63;;
21905;SDS011;11117;48.644;9.006;2022-08-06T02:13:43;5.00;;;1.30;;
21905;SDS011;11117;48.644;9.006;2022-08-06T02:16:11;3.25;;;1.80;;
21905;SDS011;11117;48.644;9.006;2022-08-06T02:18:39;3.72;;;1.65;;
21905;SDS011;11117;48.644;9.006;2022-08-06T02:21:20;4.55;;;1.50;;
21905;SDS011;11117;48.644;9.006;2022-08-06T02:23:54;2.60;;;1.45;;
21905;SDS011;11117;48.644;9.006;2022-08-06T02:26:22;3.40;;;1.55;;
21905;SDS011;11117;48.644;9.006;2022-08-06T02:29:02;1.45;;;1.35;;
21905;SDS011;11117;48.644;9.006;2022-08-06T02:31:34;3.60;;;1.55;;
21905;SDS011;11117;48.644;9.006;2022-08-06T02:34:37;3.38;;;1.70;;
21905;SDS011;11117;48.644;9.006;2022-08-06T02:37:07;4.50;;;1.80;;
21905;SDS011;11117;48.644;9.006;2022-08-06T02:40:17;3.78;;;1.75;;
21905;SDS011;11117;48.644;9.006;2022-08-06T02:42:43;3.25;;;1.60;;
21905;SDS011;11117;48.644;9.006;2022-08-06T02:48:21;4.10;;;1.90;;
21905;SDS011;11117;48.644;9.006;2022-08-06T02:51:06;3.63;;;1.60;;
21905;SDS011;11117;48.644;9.006;2022-08-06T02:54:04;2.10;;;1.70;;
21905;SDS011;11117;48.644;9.006;2022-08-06T02:56:34;16.00;;;2.10;;
21905;SDS011;11117;48.644;9.006;2022-08-06T02:59:02;2.53;;;1.73;;
21905;SDS011;11117;48.644;9.006;2022-08-06T03:01:41;2.67;;;1.70;;
21905;SDS011;11117;48.644;9.006;2022-08-06T03:04:17;2.77;;;1.90;;
21905;SDS011;11117;48.644;9.006;2022-08-06T03:06:46;4.78;;;1.80;;
21905;SDS011;11117;48.644;9.006;2022-08-06T03:09:12;3.03;;;1.60;;
21905;SDS011;11117;48.644;9.006;2022-08-06T03:11:40;2.50;;;1.63;;
21905;SDS011;11117;48.644;9.006;2022-08-06T03:14:07;2.80;;;1.80;;
21905;SDS011;11117;48.644;9.006;2022-08-06T03:16:35;7.03;;;1.80;;
21905;SDS011;11117;48.644;9.006;2022-08-06T03:19:03;4.17;;;1.80;;
21905;SDS011;11117;48.644;9.006;2022-08-06T03:21:30;4.35;;;2.10;;
21905;SDS011;11117;48.644;9.006;2022-08-06T03:24:00;2.63;;;1.73;;
21905;SDS011;11117;48.644;9.006;2022-08-06T03:26:29;5.20;;;2.67;;
21905;SDS011;11117;48.644;9.006;2022-08-06T03:28:56;2.20;;;1.73;;
21905;SDS011;11117;48.644;9.006;2022-08-06T03:31:25;3.70;;;2.00;;
21905;SDS011;11117;48.644;9.006;2022-08-06T03:33:52;4.53;;;1.90;;
21905;SDS011;11117;48.644;9.006;2022-08-06T03:36:19;4.97;;;1.90;;
21905;SDS011;11117;48.644;9.006;2022-08-06T03:38:49;9.48;;;2.05;;
21905;SDS011;11117;48.644;9.006;2022-08-06T03:41:19;3.77;;;2.17;;
21905;SDS011;11117;48.644;9.006;2022-08-06T03:43:45;3.33;;;1.80;;
21905;SDS011;11117;48.644;9.006;2022-08-06T03:46:11;5.33;;;2.00;;
21905;SDS011;11117;48.644;9.006;2022-08-06T03:48:41;4.53;;;2.20;;
21905;SDS011;11117;48.644;9.006;2022-08-06T03:51:13;3.33;;;1.97;;
21905;SDS011;11117;48.644;9.006;2022-08-06T03:53:42;4.30;;;1.80;;
21905;SDS011;11117;48.644;9.006;2022-08-06T03:56:16;5.80;;;2.20;;
21905;SDS011;11117;48.644;9.006;2022-08-06T03:58:51;4.60;;;2.23;;
21905;SDS011;11117;48.644;9.006;2022-08-06T04:01:26;4.27;;;2.10;;
21905;SDS011;11117;48.644;9.006;2022-08-06T04:03:56;3.70;;;2.10;;
21905;SDS011;11117;48.644;9.006;2022-08-06T04:06:28;3.73;;;2.30;;
21905;SDS011;11117;48.644;9.006;2022-08-06T04:08:57;4.20;;;2.20;;
21905;SDS011;11117;48.644;9.006;2022-08-06T04:11:45;2.53;;;2.13;;
21905;SDS011;11117;48.644;9.006;2022-08-06T04:14:11;5.47;;;2.10;;
21905;SDS011;11117;48.644;9.006;2022-08-06T04:16:38;4.33;;;2.00;;
21905;SDS011;11117;48.644;9.006;2022-08-06T04:19:05;3.03;;;2.10;;
21905;SDS011;11117;48.644;9.006;2022-08-06T04:24:30;5.30;;;2.13;;
21905;SDS011;11117;48.644;9.006;2022-08-06T04:26:56;4.00;;;2.40;;
21905;SDS011;11117;48.644;9.006;2022-08-06T04:29:27;3.07;;;1.93;;
21905;SDS011;11117;48.644;9.006;2022-08-06T04:31:57;5.30;;;2.23;;
21905;SDS011;11117;48.644;9.006;2022-08-06T04:34:24;8.80;;;2.13;;
21905;SDS011;11117;48.644;9.006;2022-08-06T04:36:58;6.73;;;2.23;;
21905;SDS011;11117;48.644;9.006;2022-08-06T04:39:34;9.40;;;2.30;;
21905;SDS011;11117;48.644;9.006;2022-08-06T04:42:10;3.40;;;2.50;;
21905;SDS011;11117;48.644;9.006;2022-08-06T04:45:22;4.33;;;2.07;;
21905;SDS011;11117;48.644;9.006;2022-08-06T04:48:09;4.07;;;1.93;;
21905;SDS011;11117;48.644;9.006;2022-08-06T04:50:36;3.23;;;2.10;;
21905;SDS011;11117;48.644;9.006;2022-08-06T04:53:10;6.57;;;2.30;;
21905;SDS011;11117;48.644;9.006;2022-08-06T04:55:37;3.60;;;2.10;;
21905;SDS011;11117;48.644;9.006;2022-08-06T04:58:13;5.87;;;2.20;;
21905;SDS011;11117;48.644;9.006;2022-08-06T05:03:45;3.83;;;2.17;;
21905;SDS011;11117;48.644;9.006;2022-08-06T05:06:24;3.07;;;1.83;;
21905;SDS011;11117;48.644;9.006;2022-08-06T05:09:00;7.57;;;2.30;;
21905;SDS011;11117;48.644;9.006;2022-08-06T05:11:33;3.45;;;1.73;;
21905;SDS011;11117;48.644;9.006;2022-08-06T05:14:04;3.17;;;2.13;;
21905;SDS011;11117;48.644;9.006;2022-08-06T05:16:39;4.67;;;2.20;;
21905;SDS011;11117;48.644;9.006;2022-08-06T05:19:26;4.13;;;2.22;;
21905;SDS011;11117;48.644;9.006;2022-08-06T05:21:59;5.68;;;2.10;;
21905;SDS011;11117;48.644;9.006;2022-08-06T05:24:25;6.20;;;2.55;;
21905;SDS011;11117;48.644;9.006;2022-08-06T05:26:52;2.72;;;1.95;;
21905;SDS011;11117;48.644;9.006;2022-08-06T05:29:19;5.28;;;2.00;;
21905;SDS011;11117;48.644;9.006;2022-08-06T05:34:37;4.50;;;2.20;;
21905;SDS011;11117;48.644;9.006;2022-08-06T05:37:02;4.03;;;2.10;;
21905;SDS011;11117;48.644;9.006;2022-08-06T05:39:29;5.10;;;2.25;;
21905;SDS011;11117;48.644;9.006;2022-08-06T05:41:54;2.67;;;1.90;;
21905;SDS011;11117;48.644;9.006;2022-08-06T05:44:22;4.65;;;2.10;;
21905;SDS011;11117;48.644;9.006;2022-08-06T05:50:15;4.38;;;1.95;;
21905;SDS011;11117;48.644;9.006;2022-08-06T05:53:15;6.67;;;2.20;;
21905;SDS011;11117;48.644;9.006;2022-08-06T05:55:56;5.95;;;2.22;;
21905;SDS011;11117;48.644;9.006;2022-08-06T05:58:42;6.50;;;2.17;;
21905;SDS011;11117;48.644;9.006;2022-08-06T06:01:11;4.78;;;2.20;;
21905;SDS011;11117;48.644;9.006;2022-08-06T06:03:39;4.78;;;2.50;;
21905;SDS011;11117;48.644;9.006;2022-08-06T06:06:06;4.35;;;2.40;;
21905;SDS011;11117;48.644;9.006;2022-08-06T06:08:33;5.75;;;2.20;;
21905;SDS011;11117;48.644;9.006;2022-08-06T06:11:00;4.93;;;2.40;;
21905;SDS011;11117;48.644;9.006;2022-08-06T06:13:26;5.00;;;2.40;;
21905;SDS011;11117;48.644;9.006;2022-08-06T06:24:50;5.57;;;2.42;;
21905;SDS011;11117;48.644;9.006;2022-08-06T06:30:07;4.03;;;2.38;;
21905;SDS011;11117;48.644;9.006;2022-08-06T06:35:19;4.38;;;2.33;;
21905;SDS011;11117;48.644;9.006;2022-08-06T06:38:11;3.83;;;2.05;;
21905;SDS011;11117;48.644;9.006;2022-08-06T06:43:22;2.90;;;2.00;;
21905;SDS011;11117;48.644;9.006;2022-08-06T06:46:00;5.70;;;2.00;;
21905;SDS011;11117;48.644;9.006;2022-08-06T06:50:59;3.53;;;2.03;;
21905;SDS011;11117;48.644;9.006;2022-08-06T06:53:29;6.45;;;2.00;;
21905;SDS011;11117;48.644;9.006;2022-08-06T06:56:02;3.05;;;1.90;;
21905;SDS011;11117;48.644;9.006;2022-08-06T06:58:34;2.47;;;1.73;;
21905;SDS011;11117;48.644;9.006;2022-08-06T07:01:07;4.25;;;2.10;;
21905;SDS011;11117;48.644;9.006;2022-08-06T07:03:36;3.33;;;2.30;;
21905;SDS011;11117;48.644;9.006;2022-08-06T07:06:04;5.85;;;2.47;;
21905;SDS011;11117;48.644;9.006;2022-08-06T07:08:32;6.50;;;2.30;;
21905;SDS011;11117;48.644;9.006;2022-08-06T07:11:00;5.10;;;2.20;;
21905;SDS011;11117;48.644;9.006;2022-08-06T07:13:26;5.45;;;2.22;;
21905;SDS011;11117;48.644;9.006;2022-08-06T07:15:54;5.05;;;2.10;;
21905;SDS011;11117;48.644;9.006;2022-08-06T07:18:23;5.72;;;2.45;;
21905;SDS011;11117;48.644;9.006;2022-08-06T07:20:50;6.07;;;2.30;;
21905;SDS011;11117;48.644;9.006;2022-08-06T07:23:16;4.22;;;2.40;;
21905;SDS011;11117;48.644;9.006;2022-08-06T07:25:43;5.97;;;2.28;;
21905;SDS011;11117;48.644;9.006;2022-08-06T07:28:11;3.55;;;2.30;;
21905;SDS011;11117;48.644;9.006;2022-08-06T07:33:45;10.07;;;2.70;;
21905;SDS011;11117;48.644;9.006;2022-08-06T07:36:12;6.05;;;2.35;;
21905;SDS011;11117;48.644;9.006;2022-08-06T07:38:43;7.85;;;2.25;;
21905;SDS011;11117;48.644;9.006;2022-08-06T07:41:10;3.92;;;2.33;;
21905;SDS011;11117;48.644;9.006;2022-08-06T07:43:42;4.50;;;2.58;;
21905;SDS011;11117;48.644;9.006;2022-08-06T07:46:13;4.57;;;2.58;;
21905;SDS011;11117;48.644;9.006;2022-08-06T07:48:43;7.18;;;2.70;;
21905;SDS011;11117;48.644;9.006;2022-08-06T07:51:19;4.18;;;2.28;;
21905;SDS011;11117;48.644;9.006;2022-08-06T07:53:48;4.43;;;2.60;;
21905;SDS011;11117;48.644;9.006;2022-08-06T07:56:14;3.08;;;1.95;;
21905;SDS011;11117;48.644;9.006;2022-08-06T07:58:44;4.10;;;2.00;;
21905;SDS011;11117;48.644;9.006;2022-08-06T08:01:13;5.75;;;2.25;;
21905;SDS011;11117;48.644;9.006;2022-08-06T08:03:39;6.68;;;2.50;;
21905;SDS011;11117;48.644;9.006;2022-08-06T08:06:06;5.28;;;2.53;;
21905;SDS011;11117;48.644;9.006;2022-08-06T08:08:33;8.88;;;2.60;;
21905;SDS011;11117;48.644;9.006;2022-08-06T08:11:02;4.32;;;2.05;;
21905;SDS011;11117;48.644;9.006;2022-08-06T08:13:30;3.35;;;2.50;;
21905;SDS011;11117;48.644;9.006;2022-08-06T08:15:57;2.88;;;2.42;;
21905;SDS011;11117;48.644;9.006;2022-08-06T08:18:30;4.35;;;2.50;;
21905;SDS011;11117;48.644;9.006;2022-08-06T08:21:00;5.03;;;2.47;;
21905;SDS011;11117;48.644;9.006;2022-08-06T08:23:28;5.43;;;2.38;;
21905;SDS011;11117;48.644;9.006;2022-08-06T08:26:06;6.22;;;2.30;;
21905;SDS011;11117;48.644;9.006;2022-08-06T08:28:32;4.47;;;2.42;;
21905;SDS011;11117;48.644;9.006;2022-08-06T08:30:59;6.00;;;2.60;;
21905;SDS011;11117;48.644;9.006;2022-08-06T08:33:24;4.32;;;2.42;;
21905;SDS011;11117;48.644;9.006;2022-08-06T08:35:50;4.07;;;2.35;;
21905;SDS011;11117;48.644;9.006;2022-08-06T08:38:16;4.25;;;2.67;;
21905;SDS011;11117;48.644;9.006;2022-08-06T08:40:41;3.45;;;2.35;;
21905;SDS011;11117;48.644;9.006;2022-08-06T08:43:09;3.88;;;2.28;;
21905;SDS011;11117;48.644;9.006;2022-08-06T08:45:39;2.83;;;2.13;;
21905;SDS011;11117;48.644;9.006;2022-08-06T08:48:08;6.35;;;2.50;;
21905;SDS011;11117;48.644;9.006;2022-08-06T08:50:37;7.18;;;2.40;;
21905;SDS011;11117;48.644;9.006;2022-08-06T08:53:48;6.40;;;2.40;;
21905;SDS011;11117;48.644;9.006;2022-08-06T08:55:59;5.95;;;2.42;;
21905;SDS011;11117;48.644;9.006;2022-08-06T08:58:26;4.50;;;2.10;;
21905;SDS011;11117;48.644;9.006;2022-08-06T09:00:52;2.85;;;1.88;;
21905;SDS011;11117;48.644;9.006;2022-08-06T09:03:17;3.53;;;2.22;;
21905;SDS011;11117;48.644;9.006;2022-08-06T09:05:43;3.72;;;2.20;;
21905;SDS011;11117;48.644;9.006;2022-08-06T09:08:09;5.70;;;2.28;;
21905;SDS011;11117;48.644;9.006;2022-08-06T09:10:35;4.47;;;2.13;;
21905;SDS011;11117;48.644;9.006;2022-08-06T09:13:01;3.25;;;1.98;;
21905;SDS011;11117;48.644;9.006;2022-08-06T09:15:27;4.65;;;2.15;;
21905;SDS011;11117;48.644;9.006;2022-08-06T09:17:53;4.30;;;2.10;;
21905;SDS011;11117;48.644;9.006;2022-08-06T09:20:19;3.17;;;2.20;;
21905;SDS011;11117;48.644;9.006;2022-08-06T09:22:44;3.30;;;2.22;;
21905;SDS011;11117;48.644;9.006;2022-08-06T09:25:34;5.47;;;2.15;;
21905;SDS011;11117;48.644;9.006;2022-08-06T09:28:08;4.93;;;2.47;;
21905;SDS011;11117;48.644;9.006;2022-08-06T09:30:58;3.97;;;2.33;;
21905;SDS011;11117;48.644;9.006;2022-08-06T09:33:26;7.03;;;2.58;;
21905;SDS011;11117;48.644;9.006;2022-08-06T09:36:02;4.53;;;2.20;;
21905;SDS011;11117;48.644;9.006;2022-08-06T09:38:30;4.15;;;2.30;;
21905;SDS011;11117;48.644;9.006;2022-08-06T09:41:06;3.58;;;2.30;;
21905;SDS011;11117;48.644;9.006;2022-08-06T09:43:36;2.50;;;1.90;;
21905;SDS011;11117;48.644;9.006;2022-08-06T09:46:02;4.38;;;2.20;;
21905;SDS011;11117;48.644;9.006;2022-08-06T09:48:28;3.97;;;2.00;;
21905;SDS011;11117;48.644;9.006;2022-08-06T09:50:54;2.58;;;2.10;;
21905;SDS011;11117;48.644;9.006;2022-08-06T09:53:19;5.15;;;2.55;;
21905;SDS011;11117;48.644;9.006;2022-08-06T09:55:45;2.00;;;1.70;;
21905;SDS011;11117;48.644;9.006;2022-08-06T09:58:11;5.13;;;1.90;;
21905;SDS011;11117;48.644;9.006;2022-08-06T10:00:37;6.15;;;2.05;;
21905;SDS011;11117;48.644;9.006;2022-08-06T10:03:04;4.95;;;2.00;;
21905;SDS011;11117;48.644;9.006;2022-08-06T10:05:31;4.68;;;2.10;;
21905;SDS011;11117;48.644;9.006;2022-08-06T10:08:05;2.97;;;2.22;;
21905;SDS011;11117;48.644;9.006;2022-08-06T10:15:44;4.97;;;2.65;;
21905;SDS011;11117;48.644;9.006;2022-08-06T10:18:19;2.90;;;2.05;;
21905;SDS011;11117;48.644;9.006;2022-08-06T10:21:05;6.03;;;1.92;;
21905;SDS011;11117;48.644;9.006;2022-08-06T10:23:34;2.72;;;1.80;;
21905;SDS011;11117;48.644;9.006;2022-08-06T10:26:02;6.90;;;2.17;;
21905;SDS011;11117;48.644;9.006;2022-08-06T10:28:28;4.28;;;2.10;;
21905;SDS011;11117;48.644;9.006;2022-08-06T10:30:56;2.72;;;1.95;;
21905;SDS011;11117;48.644;9.006;2022-08-06T10:33:24;4.28;;;2.15;;
21905;SDS011;11117;48.644;9.006;2022-08-06T10:35:54;2.67;;;1.70;;
21905;SDS011;11117;48.644;9.006;2022-08-06T10:38:25;2.67;;;1.73;;
21905;SDS011;11117;48.644;9.006;2022-08-06T10:40:52;2.92;;;1.92;;
21905;SDS011;11117;48.644;9.006;2022-08-06T10:43:18;5.78;;;1.88;;
21905;SDS011;11117;48.644;9.006;2022-08-06T10:45:58;4.40;;;1.67;;
21905;SDS011;11117;48.644;9.006;2022-08-06T10:48:24;3.35;;;1.85;;
21905;SDS011;11117;48.644;9.006;2022-08-06T10:50:51;2.63;;;1.52;;
21905;SDS011;11117;48.644;9.006;2022-08-06T10:53:16;6.07;;;1.80;;
21905;SDS011;11117;48.644;9.006;2022-08-06T10:55:42;7.80;;;1.90;;
21905;SDS011;11117;48.644;9.006;2022-08-06T10:58:22;2.72;;;1.80;;
21905;SDS011;11117;48.644;9.006;2022-08-06T11:01:02;3.17;;;1.80;;
21905;SDS011;11117;48.644;9.006;2022-08-06T11:12:03;4.38;;;2.00;;
21905;SDS011;11117;48.644;9.006;2022-08-06T11:14:36;5.60;;;1.77;;
21905;SDS011;11117;48.644;9.006;2022-08-06T11:17:03;3.88;;;1.73;;
21905;SDS011;11117;48.644;9.006;2022-08-06T11:19:39;3.85;;;1.63;;
21905;SDS011;11117;48.644;9.006;2022-08-06T11:25:01;7.30;;;1.75;;
21905;SDS011;11117;48.644;9.006;2022-08-06T11:30:35;1.98;;;1.70;;
21905;SDS011;11117;48.644;9.006;2022-08-06T11:33:12;2.45;;;1.40;;
21905;SDS011;11117;48.644;9.006;2022-08-06T11:35:48;2.22;;;1.58;;
21905;SDS011;11117;48.644;9.006;2022-08-06T11:41:10;2.45;;;1.80;;
21905;SDS011;11117;48.644;9.006;2022-08-06T11:46:27;4.25;;;2.03;;
21905;SDS011;11117;48.644;9.006;2022-08-06T11:57:19;3.97;;;2.00;;
21905;SDS011;11117;48.644;9.006;2022-08-06T12:02:45;4.32;;;1.85;;
21905;SDS011;11117;48.644;9.006;2022-08-06T12:08:09;4.43;;;1.73;;
21905;SDS011;11117;48.644;9.006;2022-08-06T12:13:47;3.90;;;1.70;;
21905;SDS011;11117;48.644;9.006;2022-08-06T12:16:29;5.53;;;1.92;;
21905;SDS011;11117;48.644;9.006;2022-08-06T12:19:00;2.33;;;1.65;;
21905;SDS011;11117;48.644;9.006;2022-08-06T12:21:28;2.90;;;1.70;;
21905;SDS011;11117;48.644;9.006;2022-08-06T12:23:54;3.47;;;1.80;;
21905;SDS011;11117;48.644;9.006;2022-08-06T12:26:20;3.17;;;1.90;;
21905;SDS011;11117;48.644;9.006;2022-08-06T12:28:46;4.50;;;2.30;;
21905;SDS011;11117;48.644;9.006;2022-08-06T12:31:30;4.43;;;2.00;;
21905;SDS011;11117;48.644;9.006;2022-08-06T12:33:58;3.33;;;1.67;;
21905;SDS011;11117;48.644;9.006;2022-08-06T12:36:28;2.80;;;1.60;;
21905;SDS011;11117;48.644;9.006;2022-08-06T12:38:56;5.10;;;2.10;;
21905;SDS011;11117;48.644;9.006;2022-08-06T12:41:22;4.38;;;1.90;;
21905;SDS011;11117;48.644;9.006;2022-08-06T12:43:56;3.28;;;1.90;;
21905;SDS011;11117;48.644;9.006;2022-08-06T12:46:22;3.35;;;1.70;;
21905;SDS011;11117;48.644;9.006;2022-08-06T12:48:49;5.85;;;3.05;;
21905;SDS011;11117;48.644;9.006;2022-08-06T12:51:15;2.75;;;1.95;;
21905;SDS011;11117;48.644;9.006;2022-08-06T12:53:51;5.25;;;2.20;;
21905;SDS011;11117;48.644;9.006;2022-08-06T12:56:20;2.28;;;1.63;;
21905;SDS011;11117;48.644;9.006;2022-08-06T12:58:46;3.70;;;1.88;;
21905;SDS011;11117;48.644;9.006;2022-08-06T13:01:14;2.15;;;1.60;;
21905;SDS011;11117;48.644;9.006;2022-08-06T13:03:45;2.33;;;1.65;;
21905;SDS011;11117;48.644;9.006;2022-08-06T13:06:13;4.57;;;1.50;;
21905;SDS011;11117;48.644;9.006;2022-08-06T13:08:41;3.80;;;2.20;;
21905;SDS011;11117;48.644;9.006;2022-08-06T13:11:09;5.15;;;1.90;;
21905;SDS011;11117;48.644;9.006;2022-08-06T13:13:45;4.90;;;1.85;;
21905;SDS011;11117;48.644;9.006;2022-08-06T13:16:12;3.97;;;1.90;;
21905;SDS011;11117;48.644;9.006;2022-08-06T13:18:40;3.08;;;2.13;;
21905;SDS011;11117;48.644;9.006;2022-08-06T13:21:21;3.63;;;1.80;;
21905;SDS011;11117;48.644;9.006;2022-08-06T13:23:49;6.68;;;2.03;;
21905;SDS011;11117;48.644;9.006;2022-08-06T13:26:17;7.47;;;1.90;;
21905;SDS011;11117;48.644;9.006;2022-08-06T13:31:35;2.40;;;1.80;;
21905;SDS011;11117;48.644;9.006;2022-08-06T13:34:03;4.72;;;1.98;;
21905;SDS011;11117;48.644;9.006;2022-08-06T13:36:32;4.60;;;2.20;;
21905;SDS011;11117;48.644;9.006;2022-08-06T13:38:58;6.20;;;2.03;;
21905;SDS011;11117;48.644;9.006;2022-08-06T13:41:27;3.35;;;2.00;;
21905;SDS011;11117;48.644;9.006;2022-08-06T13:43:53;4.40;;;2.17;;
21905;SDS011;11117;48.644;9.006;2022-08-06T13:46:19;4.57;;;2.05;;
21905;SDS011;11117;48.644;9.006;2022-08-06T13:48:49;4.88;;;2.65;;
21905;SDS011;11117;48.644;9.006;2022-08-06T13:51:16;4.82;;;1.98;;
21905;SDS011;11117;48.644;9.006;2022-08-06T13:53:42;4.55;;;2.00;;
21905;SDS011;11117;48.644;9.006;2022-08-06T13:56:08;2.42;;;2.05;;
21905;SDS011;11117;48.644;9.006;2022-08-06T13:58:34;2.95;;;1.80;;
21905;SDS011;11117;48.644;9.006;2022-08-06T14:00:59;3.22;;;1.90;;
21905;SDS011;11117;48.644;9.006;2022-08-06T14:03:25;3.25;;;2.03;;
21905;SDS011;11117;48.644;9.006;2022-08-06T14:05:52;4.03;;;1.73;;
21905;SDS011;11117;48.644;9.006;2022-08-06T14:08:18;4.18;;;2.03;;
21905;SDS011;11117;48.644;9.006;2022-08-06T14:10:44;6.20;;;1.92;;
21905;SDS011;11117;48.644;9.006;2022-08-06T14:13:09;3.35;;;2.10;;
21905;SDS011;11117;48.644;9.006;2022-08-06T14:15:35;3.13;;;1.90;;
21905;SDS011;11117;48.644;9.006;2022-08-06T14:18:01;3.17;;;1.90;;
21905;SDS011;11117;48.644;9.006;2022-08-06T14:20:27;5.22;;;2.28;;
21905;SDS011;11117;48.644;9.006;2022-08-06T14:22:55;5.85;;;1.52;;
21905;SDS011;11117;48.644;9.006;2022-08-06T14:25:21;2.65;;;1.63;;
21905;SDS011;11117;48.644;9.006;2022-08-06T14:27:47;1.95;;;1.60;;
21905;SDS011;11117;48.644;9.006;2022-08-06T14:30:21;2.63;;;1.65;;
21905;SDS011;11117;48.644;9.006;2022-08-06T14:32:50;3.17;;;1.88;;
21905;SDS011;11117;48.644;9.006;2022-08-06T14:35:16;2.47;;;1.27;;
21905;SDS011;11117;48.644;9.006;2022-08-06T14:37:42;2.38;;;1.70;;
21905;SDS011;11117;48.644;9.006;2022-08-06T14:40:08;2.75;;;1.48;;
21905;SDS011;11117;48.644;9.006;2022-08-06T14:42:35;2.78;;;1.70;;
21905;SDS011;11117;48.644;9.006;2022-08-06T14:45:01;5.35;;;2.10;;
21905;SDS011;11117;48.644;9.006;2022-08-06T14:47:29;2.33;;;1.40;;
21905;SDS011;11117;48.644;9.006;2022-08-06T14:49:55;2.80;;;1.50;;
21905;SDS011;11117;48.644;9.006;2022-08-06T14:52:20;2.13;;;1.60;;
21905;SDS011;11117;48.644;9.006;2022-08-06T14:54:46;2.75;;;1.60;;
21905;SDS011;11117;48.644;9.006;2022-08-06T14:57:11;3.35;;;1.55;;
21905;SDS011;11117;48.644;9.006;2022-08-06T14:59:37;4.35;;;1.60;;
21905;SDS011;11117;48.644;9.006;2022-08-06T15:02:06;2.85;;;1.60;;
21905;SDS011;11117;48.644;9.006;2022-08-06T15:04:31;2.03;;;1.42;;
21905;SDS011;11117;48.644;9.006;2022-08-06T15:07:00;4.72;;;1.50;;
21905;SDS011;11117;48.644;9.006;2022-08-06T15:09:26;4.00;;;1.50;;
21905;SDS011;11117;48.644;9.006;2022-08-06T15:11:52;3.13;;;1.58;;
21905;SDS011;11117;48.644;9.006;2022-08-06T15:14:17;3.95;;;1.70;;
21905;SDS011;11117;48.644;9.006;2022-08-06T15:16:43;2.35;;;1.50;;
21905;SDS011;11117;48.644;9.006;2022-08-06T15:19:09;2.92;;;1.77;;
21905;SDS011;11117;48.644;9.006;2022-08-06T15:21:34;2.85;;;1.50;;
21905;SDS011;11117;48.644;9.006;2022-08-06T15:24:00;2.03;;;1.40;;
21905;SDS011;11117;48.644;9.006;2022-08-06T15:26:26;4.72;;;1.50;;
21905;SDS011;11117;48.644;9.006;2022-08-06T15:29:00;2.13;;;1.55;;
21905;SDS011;11117;48.644;9.006;2022-08-06T15:31:26;3.28;;;1.40;;
21905;SDS011;11117;48.644;9.006;2022-08-06T15:33:52;5.15;;;1.50;;
21905;SDS011;11117;48.644;9.006;2022-08-06T15:36:17;3.28;;;1.42;;
21905;SDS011;11117;48.644;9.006;2022-08-06T15:38:44;8.05;;;1.75;;
21905;SDS011;11117;48.644;9.006;2022-08-06T15:41:10;3.17;;;1.48;;
21905;SDS011;11117;48.644;9.006;2022-08-06T15:43:36;4.40;;;1.63;;
21905;SDS011;11117;48.644;9.006;2022-08-06T15:46:01;1.95;;;1.60;;
21905;SDS011;11117;48.644;9.006;2022-08-06T15:48:28;4.03;;;1.75;;
21905;SDS011;11117;48.644;9.006;2022-08-06T15:50:54;4.93;;;1.73;;
21905;SDS011;11117;48.644;9.006;2022-08-06T15:53:21;4.03;;;1.60;;
21905;SDS011;11117;48.644;9.006;2022-08-06T15:55:46;3.13;;;1.55;;
21905;SDS011;11117;48.644;9.006;2022-08-06T15:58:12;1.73;;;1.40;;
21905;SDS011;11117;48.644;9.006;2022-08-06T16:00:39;3.50;;;1.63;;
21905;SDS011;11117;48.644;9.006;2022-08-06T16:03:06;4.22;;;1.60;;
21905;SDS011;11117;48.644;9.006;2022-08-06T16:05:33;5.22;;;1.60;;
21905;SDS011;11117;48.644;9.006;2022-08-06T16:07:58;4.32;;;1.35;;
21905;SDS011;11117;48.644;9.006;2022-08-06T16:10:24;2.03;;;1.58;;
21905;SDS011;11117;48.644;9.006;2022-08-06T16:12:50;1.50;;;1.20;;
21905;SDS011;11117;48.644;9.006;2022-08-06T16:15:17;2.50;;;1.38;;
21905;SDS011;11117;48.644;9.006;2022-08-06T16:17:43;2.75;;;1.40;;
21905;SDS011;11117;48.644;9.006;2022-08-06T16:20:10;4.13;;;1.35;;
21905;SDS011;11117;48.644;9.006;2022-08-06T16:22:44;4.97;;;1.40;;
21905;SDS011;11117;48.644;9.006;2022-08-06T16:25:12;4.30;;;1.40;;
21905;SDS011;11117;48.644;9.006;2022-08-06T16:27:40;1.88;;;1.20;;
21905;SDS011;11117;48.644;9.006;2022-08-06T16:30:06;4.43;;;1.35;;
21905;SDS011;11117;48.644;9.006;2022-08-06T16:32:32;2.38;;;1.65;;
21905;SDS011;11117;48.644;9.006;2022-08-06T16:34:57;2.78;;;1.42;;
21905;SDS011;11117;48.644;9.006;2022-08-06T16:37:23;3.85;;;1.58;;
21905;SDS011;11117;48.644;9.006;2022-08-06T16:39:51;4.25;;;1.42;;
21905;SDS011;11117;48.644;9.006;2022-08-06T16:42:17;4.60;;;1.50;;
21905;SDS011;11117;48.644;9.006;2022-08-06T16:44:42;2.65;;;1.75;;
21905;SDS011;11117;48.644;9.006;2022-08-06T16:47:08;2.80;;;1.40;;
21905;SDS011;11117;48.644;9.006;2022-08-06T16:49:36;2.10;;;1.15;;